Time;durP1;ratioP1;P1;durP2;ratioP2;P2;SDS_P1;SDS_P2;PMS_P1;PMS_P2;Temp;Humidity;BMP_temperature;BMP_pressure;BME280_temperature;BME280_humidity;BME280_pressure;Samples;Min_cycle;Max_cycle;Signal;HPM_P1;HPM_P2
2023/08/25 00:00:56;;;;;;;16.23;3.93;;;20.30;70.10;;;;;;5046335;28;20843;-51
2023/08/25 00:03:23;;;;;;;5.63;3.40;;;20.10;66.80;;;;;;5047180;28;20473;-52
2023/08/25 00:05:52;;;;;;;5.03;3.37;;;20.00;50.10;;;;;;5048705;28;20493;-52
2023/08/25 00:08:19;;;;;;;5.20;4.37;;;20.00;34.60;;;;;;5048080;28;20493;-52
2023/08/25 00:10:46;;;;;;;9.30;4.57;;;20.00;24.70;;;;;;5046256;28;20438;-52
2023/08/25 00:13:14;;;;;;;11.63;4.30;;;19.90;75.10;;;;;;5045494;28;20474;-52
2023/08/25 00:15:44;;;;;;;6.37;4.70;;;19.90;99.90;;;;;;5047483;28;20572;-53
2023/08/25 00:18:11;;;;;;;5.50;4.27;;;19.90;99.90;;;;;;5045422;28;21006;-53
2023/08/25 00:20:38;;;;;;;6.37;4.27;;;19.90;99.90;;;;;;5031975;28;20994;-51
2023/08/25 00:23:04;;;;;;;4.67;4.07;;;19.90;99.90;;;;;;5037801;28;20595;-51
2023/08/25 00:25:31;;;;;;;7.83;4.40;;;19.90;99.90;;;;;;5039331;28;20870;-52
2023/08/25 00:27:59;;;;;;;6.20;3.97;;;19.80;99.90;;;;;;5051746;28;20461;-52
2023/08/25 00:30:28;;;;;;;4.73;3.97;;;19.80;99.90;;;;;;5044816;28;20466;-51
2023/08/25 00:32:54;;;;;;;5.80;4.20;;;19.80;99.90;;;;;;5046287;28;20999;-51
2023/08/25 00:35:21;;;;;;;6.90;4.80;;;19.80;99.90;;;;;;5049548;28;20485;-52
2023/08/25 00:37:47;;;;;;;7.37;4.50;;;19.70;99.90;;;;;;5050155;28;20947;-52
2023/08/25 00:40:14;;;;;;;4.53;4.13;;;19.70;99.90;;;;;;5043064;28;20701;-52
2023/08/25 00:42:40;;;;;;;4.27;3.87;;;19.60;99.90;;;;;;5048968;28;20536;-52
2023/08/25 00:45:07;;;;;;;4.50;4.10;;;19.60;99.90;;;;;;5048113;28;21184;-52
2023/08/25 00:47:36;;;;;;;6.50;4.07;;;19.60;99.90;;;;;;5044981;28;20537;-52
2023/08/25 00:50:03;;;;;;;9.97;4.80;;;19.60;99.90;;;;;;5049550;28;20520;-52
2023/08/25 00:52:30;;;;;;;7.10;5.17;;;19.60;99.90;;;;;;5046999;28;20821;-52
2023/08/25 00:54:58;;;;;;;5.53;4.40;;;19.60;99.90;;;;;;5047903;28;21069;-52
2023/08/25 00:57:25;;;;;;;7.87;4.70;;;19.60;99.90;;;;;;5040799;28;20561;-52
2023/08/25 00:59:52;;;;;;;10.83;5.47;;;19.60;99.90;;;;;;5045194;28;20517;-52
2023/08/25 01:02:19;;;;;;;5.80;4.83;;;19.60;99.90;;;;;;5049860;28;20545;-51
2023/08/25 01:04:47;;;;;;;6.30;4.50;;;19.60;99.90;;;;;;5050255;28;20476;-52
2023/08/25 01:07:14;;;;;;;4.70;4.30;;;19.70;99.90;;;;;;5048180;28;20489;-52
2023/08/25 01:09:41;;;;;;;7.73;3.73;;;19.70;99.90;;;;;;5039333;28;20548;-51
2023/08/25 01:12:13;;;;;;;5.80;4.10;;;19.70;89.60;;;;;;5041580;28;20552;-52
2023/08/25 01:15:00;;;;;;;6.47;4.10;;;19.70;20.80;;;;;;5046377;28;20482;-52
2023/08/25 01:17:32;;;;;;;5.63;3.50;;;19.70;40.10;;;;;;5042543;28;20580;-52
2023/08/25 01:20:06;;;;;;;5.40;3.93;;;19.80;37.20;;;;;;5048037;28;20539;-51
2023/08/25 01:22:43;;;;;;;4.53;3.73;;;19.90;28.70;;;;;;5041024;28;20517;-52
2023/08/25 01:25:24;;;;;;;4.17;3.80;;;19.90;27.00;;;;;;5048576;28;20575;-51
2023/08/25 01:27:52;;;;;;;4.90;3.57;;;19.90;36.30;;;;;;5037784;28;20465;-51
2023/08/25 01:30:19;;;;;;;10.90;4.03;;;19.90;32.10;;;;;;5048186;28;21427;-52
2023/08/25 01:32:46;;;;;;;4.33;3.93;;;19.90;25.60;;;;;;5038115;28;20467;-52
2023/08/25 01:35:14;;;;;;;5.97;3.80;;;19.90;20.50;;;;;;5050664;28;20504;-51
2023/08/25 01:37:48;;;;;;;8.30;4.03;;;19.80;72.80;;;;;;5049487;28;20982;-53
2023/08/25 01:40:22;;;;;;;5.43;4.20;;;19.80;91.00;;;;;;5049159;28;20457;-51
2023/08/25 01:42:51;;;;;;;10.33;4.40;;;19.80;91.20;;;;;;5049234;28;20508;-52
2023/08/25 01:45:19;;;;;;;5.13;4.33;;;19.80;74.40;;;;;;5042866;28;20500;-51
2023/08/25 01:47:47;;;;;;;6.23;4.23;;;19.80;83.30;;;;;;5049043;28;20494;-52
2023/08/25 01:50:15;;;;;;;6.27;4.13;;;19.70;99.90;;;;;;5035619;28;20497;-52
2023/08/25 01:52:42;;;;;;;7.93;3.90;;;19.70;99.90;;;;;;5045024;28;20492;-52
2023/08/25 01:55:09;;;;;;;8.63;4.47;;;19.80;99.90;;;;;;5040213;28;20522;-52
2023/08/25 01:57:36;;;;;;;4.57;3.93;;;19.80;99.90;;;;;;5048865;28;20983;-52
2023/08/25 02:00:05;;;;;;;5.90;4.47;;;19.70;99.90;;;;;;5041024;28;21024;-52
2023/08/25 02:02:32;;;;;;;11.97;4.17;;;19.70;99.90;;;;;;5039838;28;20454;-51
2023/08/25 02:04:58;;;;;;;6.97;4.33;;;19.70;99.90;;;;;;5035657;28;20482;-51
2023/08/25 02:07:25;;;;;;;5.17;4.10;;;19.70;99.90;;;;;;5038661;28;20481;-52
2023/08/25 02:09:53;;;;;;;6.10;4.07;;;19.80;81.50;;;;;;5047207;28;20507;-52
2023/08/25 02:12:19;;;;;;;4.60;4.10;;;19.70;79.40;;;;;;5048046;28;20462;-52
2023/08/25 02:14:46;;;;;;;9.33;5.17;;;19.70;22.40;;;;;;5047766;28;20942;-51
2023/08/25 02:17:14;;;;;;;7.60;4.30;;;19.80;20.30;;;;;;5057389;28;20584;-52
2023/08/25 02:19:40;;;;;;;7.43;4.13;;;19.80;74.60;;;;;;5048972;28;20506;-52
2023/08/25 02:22:07;;;;;;;11.60;3.77;;;19.80;87.30;;;;;;5041405;28;20466;-52
2023/08/25 02:24:35;;;;;;;5.20;3.50;;;19.80;99.90;;;;;;5035028;28;20494;-52
2023/08/25 02:27:01;;;;;;;5.40;3.83;;;19.80;94.60;;;;;;5048081;28;20493;-53
2023/08/25 02:29:28;;;;;;;7.27;4.50;;;19.80;99.90;;;;;;5050018;28;20517;-52
2023/08/25 02:31:55;;;;;;;9.03;4.10;;;19.80;79.80;;;;;;5043031;28;20496;-52
2023/08/25 02:34:23;;;;;;;5.40;3.90;;;19.80;26.00;;;;;;5048686;28;20458;-52
2023/08/25 02:36:49;;;;;;;8.27;4.40;;;19.80;23.30;;;;;;5044042;28;20563;-52
2023/08/25 02:39:16;;;;;;;6.47;4.37;;;19.80;24.10;;;;;;5051865;28;20541;-52
2023/08/25 02:41:42;;;;;;;4.20;3.70;;;19.80;21.90;;;;;;5048582;28;20492;-52
2023/08/25 02:44:09;;;;;;;6.20;3.90;;;19.90;22.70;;;;;;5052775;28;20461;-52
2023/08/25 02:46:37;;;;;;;11.10;4.37;;;19.90;21.90;;;;;;5047705;28;20458;-51
2023/08/25 02:49:04;;;;;;;4.13;3.80;;;19.90;20.80;;;;;;5041825;28;20543;-52
2023/08/25 02:51:32;;;;;;;6.80;4.33;;;19.90;23.90;;;;;;5048159;28;20519;-52
2023/08/25 02:53:58;;;;;;;4.70;4.27;;;19.90;37.10;;;;;;5050688;28;20493;-51
2023/08/25 02:56:25;;;;;;;7.50;4.00;;;19.90;39.20;;;;;;5054094;28;20469;-52
2023/08/25 02:58:51;;;;;;;8.03;4.20;;;19.90;38.40;;;;;;5054355;28;20510;-52
2023/08/25 03:01:18;;;;;;;4.87;4.10;;;20.00;47.20;;;;;;5058370;28;20481;-53
2023/08/25 03:03:44;;;;;;;8.20;4.60;;;20.00;46.20;;;;;;5042569;28;20486;-53
2023/08/25 03:06:11;;;;;;;4.67;3.87;;;20.00;46.60;;;;;;5049572;28;20466;-52
2023/08/25 03:08:39;;;;;;;5.40;4.00;;;20.00;45.80;;;;;;5045829;28;20506;-52
2023/08/25 03:11:05;;;;;;;6.53;4.17;;;20.00;51.40;;;;;;5055492;28;20466;-51
2023/08/25 03:13:32;;;;;;;6.90;4.87;;;20.10;50.00;;;;;;5044735;28;20462;-52
2023/08/25 03:16:01;;;;;;;5.20;4.20;;;20.10;57.40;;;;;;5047691;28;21073;-51
2023/08/25 03:18:28;;;;;;;4.93;4.40;;;20.10;54.70;;;;;;5050398;28;20481;-51
2023/08/25 03:20:55;;;;;;;11.87;4.67;;;20.10;61.60;;;;;;5050864;28;20504;-52
2023/08/25 03:23:22;;;;;;;8.47;4.00;;;20.10;73.40;;;;;;5048567;28;20462;-52
2023/08/25 03:25:49;;;;;;;9.80;4.43;;;20.10;75.30;;;;;;5050665;28;20496;-52
2023/08/25 03:28:16;;;;;;;4.80;4.40;;;20.10;68.60;;;;;;5051072;28;20505;-51
2023/08/25 03:30:42;;;;;;;5.93;4.60;;;20.20;69.40;;;;;;5049491;28;20513;-52
2023/08/25 03:33:09;;;;;;;8.40;4.33;;;20.20;71.50;;;;;;5051914;28;20537;-52
2023/08/25 03:35:36;;;;;;;5.73;4.37;;;20.20;79.40;;;;;;5042416;28;20594;-52
2023/08/25 03:38:03;;;;;;;6.50;4.80;;;20.20;67.60;;;;;;5049119;28;20513;-52
2023/08/25 03:40:29;;;;;;;5.07;4.23;;;20.20;76.00;;;;;;5049252;28;20451;-52
2023/08/25 03:42:57;;;;;;;5.03;3.47;;;20.20;65.50;;;;;;5048102;28;20542;-52
2023/08/25 03:45:24;;;;;;;7.63;4.80;;;20.30;64.30;;;;;;5048737;28;20528;-52
2023/08/25 03:47:50;;;;;;;5.03;4.37;;;20.20;62.60;;;;;;5045504;28;20489;-51
2023/08/25 03:50:17;;;;;;;5.13;4.50;;;20.20;56.80;;;;;;5042171;28;20848;-51
2023/08/25 03:52:44;;;;;;;8.97;5.00;;;20.20;55.60;;;;;;5049396;28;20979;-51
2023/08/25 03:55:10;;;;;;;4.43;4.13;;;20.20;55.70;;;;;;5041498;28;20489;-50
2023/08/25 03:57:37;;;;;;;5.57;4.10;;;20.20;50.30;;;;;;5051622;28;20516;-52
2023/08/25 04:00:07;;;;;;;7.90;4.17;;;20.10;47.60;;;;;;5036161;28;21019;-52
2023/08/25 04:02:34;;;;;;;5.53;4.67;;;20.10;45.80;;;;;;5044363;28;20547;-52
2023/08/25 04:05:00;;;;;;;7.50;5.20;;;20.00;44.30;;;;;;5051171;28;20489;-51
2023/08/25 04:07:27;;;;;;;10.47;4.53;;;20.00;45.90;;;;;;5042615;28;20512;-53
2023/08/25 04:09:55;;;;;;;6.90;5.07;;;19.90;46.20;;;;;;5049289;28;20506;-51
2023/08/25 04:12:22;;;;;;;7.90;4.07;;;19.90;43.70;;;;;;5047055;28;20445;-52
2023/08/25 04:14:48;;;;;;;10.13;4.07;;;19.90;41.80;;;;;;5050072;28;20519;-52
2023/08/25 04:17:16;;;;;;;8.57;4.70;;;19.80;37.10;;;;;;5051927;28;20970;-51
2023/08/25 04:19:42;;;;;;;10.10;5.10;;;19.70;41.90;;;;;;5052281;28;21018;-53
2023/08/25 04:22:09;;;;;;;11.83;5.20;;;19.70;38.80;;;;;;5051197;28;20490;-50
2023/08/25 04:24:35;;;;;;;7.87;4.80;;;19.70;40.80;;;;;;5047187;28;20511;-52
2023/08/25 04:27:02;;;;;;;7.90;5.10;;;19.70;44.00;;;;;;5035292;28;20487;-52
2023/08/25 04:29:29;;;;;;;5.63;4.77;;;19.70;35.20;;;;;;5047969;28;20533;-52
2023/08/25 04:31:55;;;;;;;5.53;4.33;;;19.70;34.50;;;;;;5046885;28;20485;-51
2023/08/25 04:34:23;;;;;;;5.50;4.20;;;19.70;33.00;;;;;;5040693;28;20537;-51
2023/08/25 04:36:49;;;;;;;5.93;4.67;;;19.70;25.20;;;;;;5047279;28;21007;-51
2023/08/25 04:39:16;;;;;;;6.13;5.23;;;19.70;26.60;;;;;;5046561;28;20521;-53
2023/08/25 04:41:43;;;;;;;9.40;4.87;;;19.70;29.90;;;;;;5047553;28;20496;-50
2023/08/25 04:44:09;;;;;;;7.33;4.87;;;19.70;25.20;;;;;;5050191;28;20501;-51
2023/08/25 04:46:36;;;;;;;12.13;4.80;;;19.70;30.80;;;;;;5046450;28;20478;-52
2023/08/25 04:49:02;;;;;;;8.07;4.70;;;19.80;33.20;;;;;;5049863;28;20509;-51
2023/08/25 04:51:30;;;;;;;5.53;5.00;;;19.80;30.20;;;;;;5039403;28;20952;-52
2023/08/25 04:53:57;;;;;;;9.77;4.93;;;19.80;31.80;;;;;;5044348;28;20466;-51
2023/08/25 04:56:23;;;;;;;4.83;4.33;;;19.80;30.00;;;;;;5039985;28;20521;-52
2023/08/25 04:58:50;;;;;;;7.40;4.80;;;19.90;25.90;;;;;;5036156;28;20510;-52
2023/08/25 05:01:16;;;;;;;6.00;4.83;;;19.90;25.80;;;;;;5048577;28;20466;-51
2023/08/25 05:03:44;;;;;;;7.70;4.60;;;19.90;25.00;;;;;;5044377;28;20513;-52
2023/08/25 05:06:11;;;;;;;7.33;5.27;;;19.90;24.30;;;;;;5041940;28;20550;-51
2023/08/25 05:08:39;;;;;;;7.47;4.60;;;20.00;25.60;;;;;;5053099;28;20519;-51
2023/08/25 05:11:05;;;;;;;7.60;4.33;;;20.00;22.50;;;;;;5046301;28;20489;-51
2023/08/25 05:13:32;;;;;;;6.43;4.30;;;20.00;20.40;;;;;;5043412;28;20502;-52
2023/08/25 05:15:59;;;;;;;6.33;4.83;;;20.00;21.70;;;;;;5043553;28;20490;-52
2023/08/25 05:18:25;;;;;;;16.30;5.23;;;20.00;23.70;;;;;;5049145;28;20575;-52
2023/08/25 05:20:57;;;;;;;7.30;4.50;;;20.00;26.10;;;;;;5046468;28;20472;-52
2023/08/25 05:23:24;;;;;;;7.53;4.77;;;20.00;24.50;;;;;;5048279;28;20490;-51
2023/08/25 05:25:52;;;;;;;7.00;4.60;;;20.00;21.30;;;;;;5043453;28;20462;-51
2023/08/25 05:28:18;;;;;;;7.10;4.87;;;20.00;21.50;;;;;;5048655;28;20514;-51
2023/08/25 05:30:46;;;;;;;9.60;5.13;;;20.10;21.20;;;;;;5047416;28;20489;-52
2023/08/25 05:33:13;;;;;;;6.77;5.90;;;20.10;21.80;;;;;;5040217;28;20463;-52
2023/08/25 05:35:40;;;;;;;9.20;5.37;;;20.20;22.20;;;;;;5049281;28;20449;-52
2023/08/25 05:38:07;;;;;;;6.50;5.30;;;20.30;30.60;;;;;;5048969;28;20485;-51
2023/08/25 05:40:34;;;;;;;9.77;6.47;;;20.40;45.10;;;;;;5048446;28;20489;-53
2023/08/25 05:43:01;;;;;;;7.23;5.47;;;20.40;49.10;;;;;;5050140;28;20492;-52
2023/08/25 05:45:28;;;;;;;8.97;5.27;;;20.50;53.90;;;;;;5042184;28;20489;-51
2023/08/25 05:47:54;;;;;;;7.90;5.40;;;20.60;58.80;;;;;;5049607;28;20837;-51
2023/08/25 05:50:21;;;;;;;9.27;5.73;;;20.70;64.70;;;;;;5051658;28;20462;-52
2023/08/25 05:52:48;;;;;;;8.53;5.67;;;20.70;66.40;;;;;;5049023;28;20524;-52
2023/08/25 05:55:14;;;;;;;10.23;5.50;;;20.80;65.00;;;;;;5053075;28;20481;-52
2023/08/25 05:57:41;;;;;;;11.00;5.60;;;20.70;68.20;;;;;;5045955;28;20505;-51
2023/08/25 06:00:10;;;;;;;8.20;5.70;;;20.80;71.50;;;;;;5050352;28;20532;-53
2023/08/25 06:02:37;;;;;;;6.83;5.67;;;20.70;70.70;;;;;;5048227;28;20469;-52
2023/08/25 06:05:04;;;;;;;13.07;5.93;;;20.70;67.70;;;;;;5051067;28;20461;-52
2023/08/25 06:07:30;;;;;;;9.50;5.70;;;20.70;68.70;;;;;;5054949;28;20548;-51
2023/08/25 06:09:57;;;;;;;12.60;6.60;;;20.70;69.50;;;;;;5055839;28;21018;-51
2023/08/25 06:12:23;;;;;;;7.97;5.13;;;20.80;70.60;;;;;;5059519;28;20963;-51
2023/08/25 06:14:52;;;;;;;15.90;5.67;;;20.80;78.00;;;;;;5046196;28;20494;-51
2023/08/25 06:17:20;;;;;;;11.20;6.30;;;20.90;79.60;;;;;;5053395;28;20568;-52
2023/08/25 06:19:46;;;;;;;20.53;5.73;;;21.00;78.30;;;;;;5049635;28;20567;-52
2023/08/25 06:22:13;;;;;;;11.70;6.30;;;21.10;77.40;;;;;;5052684;28;20519;-51
2023/08/25 06:24:40;;;;;;;16.40;6.50;;;21.20;78.30;;;;;;5055414;28;20483;-53
2023/08/25 06:27:07;;;;;;;11.93;5.17;;;21.20;80.30;;;;;;5051936;28;20453;-52
2023/08/25 06:29:34;;;;;;;7.73;6.57;;;21.30;84.60;;;;;;5047404;28;20485;-52
2023/08/25 06:32:00;;;;;;;13.23;6.13;;;21.40;94.60;;;;;;5047359;28;20458;-52
2023/08/25 06:34:28;;;;;;;8.00;6.20;;;21.50;96.00;;;;;;5050364;28;20501;-52
2023/08/25 06:36:55;;;;;;;6.63;5.27;;;21.60;99.90;;;;;;5047749;28;20504;-52
2023/08/25 06:39:22;;;;;;;5.80;5.27;;;21.70;99.90;;;;;;5051399;28;20489;-52
2023/08/25 06:41:49;;;;;;;18.63;6.00;;;21.80;99.90;;;;;;5052030;28;20511;-52
2023/08/25 06:44:15;;;;;;;7.47;5.17;;;21.80;99.90;;;;;;5049668;28;20485;-52
2023/08/25 06:46:42;;;;;;;9.97;5.83;;;21.80;99.90;;;;;;5045531;28;20481;-53
2023/08/25 06:49:11;;;;;;;6.83;5.40;;;21.90;99.90;;;;;;5051336;28;20509;-51
2023/08/25 06:51:39;;;;;;;10.00;5.70;;;22.00;99.90;;;;;;5047331;28;20982;-51
2023/08/25 06:54:05;;;;;;;14.10;6.00;;;22.10;99.90;;;;;;5046913;28;20458;-51
2023/08/25 06:56:32;;;;;;;12.17;6.57;;;22.20;99.90;;;;;;5045897;28;20881;-52
2023/08/25 06:58:58;;;;;;;10.43;5.57;;;22.20;99.90;;;;;;5047130;28;20505;-52
2023/08/25 07:01:25;;;;;;;13.27;5.90;;;22.30;99.90;;;;;;5041512;28;20948;-52
2023/08/25 07:03:51;;;;;;;7.90;5.97;;;22.40;99.90;;;;;;5047162;28;20512;-53
2023/08/25 07:06:19;;;;;;;15.60;6.30;;;22.50;99.90;;;;;;5046825;28;20539;-52
2023/08/25 07:08:47;;;;;;;15.60;5.73;;;22.50;99.90;;;;;;5048947;28;20481;-52
2023/08/25 07:11:13;;;;;;;14.53;5.50;;;22.60;99.90;;;;;;5053857;28;20493;-54
2023/08/25 07:13:40;;;;;;;12.73;5.80;;;22.60;99.90;;;;;;5050668;28;20496;-52
2023/08/25 07:16:07;;;;;;;10.77;5.80;;;22.70;99.90;;;;;;5032684;28;20490;-54
2023/08/25 07:18:33;;;;;;;24.27;6.20;;;22.70;99.90;;;;;;5047118;28;20494;-53
2023/08/25 07:21:04;;;;;;;10.87;5.13;;;22.80;99.90;;;;;;5039518;28;20463;-51
2023/08/25 07:23:30;;;;;;;8.53;5.20;;;22.80;99.90;;;;;;5047461;28;20878;-53
2023/08/25 07:25:58;;;;;;;9.13;5.73;;;22.90;99.90;;;;;;5048326;28;20936;-51
2023/08/25 07:28:25;;;;;;;14.63;5.80;;;23.00;99.90;;;;;;5043140;28;20910;-54
2023/08/25 07:30:52;;;;;;;7.03;5.73;;;23.10;99.90;;;;;;5061790;28;20503;-52
2023/08/25 07:33:18;;;;;;;9.17;5.70;;;23.20;99.90;;;;;;5051537;28;20929;-52
2023/08/25 07:35:45;;;;;;;7.23;5.70;;;23.20;99.90;;;;;;5046228;28;20519;-51
2023/08/25 07:38:13;;;;;;;6.73;4.70;;;23.30;99.90;;;;;;5039588;28;20538;-51
2023/08/25 07:40:40;;;;;;;9.33;5.23;;;23.30;99.90;;;;;;5047443;28;20464;-53
2023/08/25 07:43:08;;;;;;;13.20;5.10;;;23.30;99.90;;;;;;5057450;28;20456;-54
2023/08/25 07:45:35;;;;;;;10.80;5.03;;;23.40;99.90;;;;;;5044774;28;20470;-52
2023/08/25 07:48:02;;;;;;;13.53;5.40;;;23.50;99.90;;;;;;5048278;28;20464;-52
2023/08/25 07:50:30;;;;;;;7.17;5.17;;;23.50;99.90;;;;;;5044594;28;20903;-52
2023/08/25 07:52:56;;;;;;;10.53;4.50;;;23.60;99.90;;;;;;5045101;28;20489;-52
2023/08/25 07:55:24;;;;;;;8.13;4.63;;;23.70;99.90;;;;;;5048711;28;21039;-53
2023/08/25 07:57:52;;;;;;;4.97;4.43;;;23.70;99.90;;;;;;5048087;28;20521;-53
2023/08/25 08:00:20;;;;;;;6.27;4.87;;;23.80;99.90;;;;;;5047740;28;20500;-53
2023/08/25 08:02:48;;;;;;;12.10;5.13;;;23.90;99.90;;;;;;5050333;28;21310;-53
2023/08/25 08:05:17;;;;;;;7.30;4.47;;;23.90;99.90;;;;;;5048647;28;20490;-52
2023/08/25 08:07:44;;;;;;;5.00;4.50;;;24.00;99.90;;;;;;5046673;28;20454;-54
2023/08/25 08:10:11;;;;;;;10.20;4.13;;;24.10;99.90;;;;;;5039474;28;20465;-53
2023/08/25 08:12:38;;;;;;;9.03;4.10;;;24.20;99.90;;;;;;5043641;28;20936;-54
2023/08/25 08:15:06;;;;;;;7.83;3.80;;;24.30;99.90;;;;;;5047401;28;20468;-52
2023/08/25 08:17:34;;;;;;;15.00;4.10;;;24.40;99.90;;;;;;5042756;28;20528;-51
2023/08/25 08:20:02;;;;;;;6.20;4.30;;;24.50;99.90;;;;;;5056013;28;20516;-52
2023/08/25 08:22:29;;;;;;;4.63;3.60;;;24.60;91.30;;;;;;5041530;28;20639;-52
2023/08/25 08:24:55;;;;;;;13.63;3.63;;;24.70;27.10;;;;;;5048094;28;20591;-51
2023/08/25 08:27:22;;;;;;;13.80;4.27;;;24.80;31.80;;;;;;5043023;28;20537;-52
2023/08/25 08:29:48;;;;;;;5.60;3.30;;;24.90;36.60;;;;;;5045352;28;20470;-52
2023/08/25 08:32:16;;;;;;;13.53;4.07;;;25.00;44.00;;;;;;5031909;28;20470;-51
2023/08/25 08:34:44;;;;;;;4.40;3.43;;;25.10;46.90;;;;;;5055011;28;20564;-52
2023/08/25 08:37:10;;;;;;;9.33;3.80;;;25.20;44.10;;;;;;5047367;28;20962;-52
2023/08/25 08:39:38;;;;;;;17.40;3.03;;;25.30;45.70;;;;;;5048950;28;20921;-51
2023/08/25 08:42:07;;;;;;;4.07;2.80;;;25.50;73.60;;;;;;5048721;28;20470;-52
2023/08/25 08:44:36;;;;;;;4.57;2.93;;;25.60;74.60;;;;;;5048642;28;20462;-51
2023/08/25 08:47:04;;;;;;;3.67;3.17;;;25.70;72.10;;;;;;5046775;28;20490;-51
2023/08/25 08:49:33;;;;;;;7.90;2.50;;;25.80;81.60;;;;;;5041086;28;20482;-51
2023/08/25 08:52:03;;;;;;;7.87;3.00;;;26.00;78.20;;;;;;5041922;28;20491;-51
2023/08/25 08:54:31;;;;;;;2.80;2.60;;;26.00;89.40;;;;;;5046281;28;20454;-52
2023/08/25 08:56:59;;;;;;;10.57;3.53;;;26.10;95.80;;;;;;5052708;28;20483;-51
2023/08/25 08:59:26;;;;;;;5.30;3.10;;;26.10;99.90;;;;;;5042141;28;20490;-53
2023/08/25 09:01:53;;;;;;;5.93;3.10;;;26.20;99.90;;;;;;5042422;28;20553;-51
2023/08/25 09:04:21;;;;;;;5.27;2.67;;;26.30;99.90;;;;;;5059615;28;20860;-51
2023/08/25 09:06:49;;;;;;;8.80;2.73;;;26.40;99.90;;;;;;5050246;28;20570;-52
2023/08/25 09:09:19;;;;;;;6.10;3.10;;;26.60;99.90;;;;;;5049322;28;20482;-52
2023/08/25 09:11:46;;;;;;;3.00;2.40;;;26.70;99.90;;;;;;5043499;28;20458;-51
2023/08/25 09:14:13;;;;;;;3.80;2.50;;;26.90;99.90;;;;;;5046218;28;20465;-52
2023/08/25 09:16:39;;;;;;;3.07;2.83;;;27.00;99.90;;;;;;5044090;28;20478;-51
2023/08/25 09:19:07;;;;;;;5.63;3.13;;;27.40;99.90;;;;;;5045730;28;20518;-51
2023/08/25 09:21:33;;;;;;;11.63;3.40;;;27.60;99.90;;;;;;5049311;28;20530;-50
2023/08/25 09:24:01;;;;;;;5.13;3.07;;;27.70;99.90;;;;;;5054195;28;20438;-52
2023/08/25 09:26:35;;;;;;;6.77;2.60;;;27.60;99.90;;;;;;5048033;28;20430;-52
2023/08/25 09:29:01;;;;;;;3.67;2.80;;;27.70;99.90;;;;;;5049728;28;20514;-51
2023/08/25 09:31:30;;;;;;;5.20;2.70;;;27.70;99.90;;;;;;5058281;28;21145;-52
2023/08/25 09:34:00;;;;;;;3.83;2.30;;;27.60;99.90;;;;;;5049106;28;20889;-52
2023/08/25 09:36:27;;;;;;;10.90;2.10;;;27.70;99.90;;;;;;5048881;28;20516;-53
2023/08/25 09:38:54;;;;;;;5.27;2.70;;;27.70;99.90;;;;;;5058115;28;20524;-51
2023/08/25 09:41:24;;;;;;;3.67;2.23;;;27.70;99.90;;;;;;5077170;22;20497;-52
2023/08/25 09:43:57;;;;;;;3.40;2.27;;;27.80;99.90;;;;;;5064802;28;20525;-52
2023/08/25 09:46:28;;;;;;;8.17;2.37;;;27.80;99.90;;;;;;5057489;28;20461;-58
2023/08/25 09:49:01;;;;;;;4.50;2.50;;;27.80;99.90;;;;;;5043469;28;20457;-52
2023/08/25 09:51:30;;;;;;;4.83;2.37;;;27.70;99.90;;;;;;5052547;28;20488;-51
2023/08/25 09:53:58;;;;;;;9.63;2.67;;;27.80;99.90;;;;;;5057822;28;20972;-51
2023/08/25 09:56:24;;;;;;;8.90;2.23;;;27.80;99.90;;;;;;5043848;28;20462;-51
2023/08/25 09:58:53;;;;;;;2.20;2.00;;;27.90;99.90;;;;;;5049748;28;20532;-51
2023/08/25 10:01:20;;;;;;;2.03;1.90;;;28.20;99.90;;;;;;5053720;28;20509;-51
2023/08/25 10:03:47;;;;;;;7.00;2.30;;;28.50;99.90;;;;;;5049777;28;20501;-51
2023/08/25 10:06:15;;;;;;;5.67;2.70;;;28.60;99.90;;;;;;5050307;28;20497;-51
2023/08/25 10:08:42;;;;;;;9.50;2.83;;;28.80;99.90;;;;;;5048288;28;20502;-51
2023/08/25 10:11:09;;;;;;;4.63;2.43;;;29.10;99.90;;;;;;5050200;28;20760;-51
2023/08/25 10:13:37;;;;;;;7.23;2.57;;;29.40;99.90;;;;;;5052329;28;20469;-51
2023/08/25 10:16:07;;;;;;;6.03;2.60;;;29.60;99.90;;;;;;5051148;28;20504;-51
2023/08/25 10:18:39;;;;;;;13.03;3.10;;;29.50;99.90;;;;;;5050624;28;21208;-51
2023/08/25 10:21:07;;;;;;;15.03;2.97;;;29.20;99.90;;;;;;5050889;28;20513;-51
2023/08/25 10:23:36;;;;;;;4.63;2.27;;;28.70;99.90;;;;;;5037520;28;20454;-51
2023/08/25 10:26:03;;;;;;;8.67;2.57;;;28.50;99.90;;;;;;5046699;28;20894;-51
2023/08/25 10:28:30;;;;;;;3.53;3.17;;;28.30;99.90;;;;;;5049635;28;20486;-51
2023/08/25 10:30:57;;;;;;;6.00;2.87;;;28.20;99.90;;;;;;5052292;28;20847;-51
2023/08/25 10:33:25;;;;;;;3.50;2.87;;;28.20;99.90;;;;;;5054845;28;20519;-51
2023/08/25 10:35:54;;;;;;;4.60;3.23;;;28.10;99.90;;;;;;5051312;28;21036;-51
2023/08/25 10:38:39;;;;;;;5.57;2.80;;;28.00;99.90;;;;;;5051631;28;21352;-51
2023/08/25 10:41:20;;;;;;;4.83;3.00;;;27.80;99.90;;;;;;5047414;28;20501;-51
2023/08/25 10:43:50;;;;;;;5.60;2.77;;;27.70;99.90;;;;;;5047972;28;20474;-51
2023/08/25 10:46:18;;;;;;;3.30;3.00;;;27.60;99.90;;;;;;5051141;28;20458;-51
2023/08/25 10:48:47;;;;;;;3.17;2.43;;;27.50;99.90;;;;;;5050701;28;20482;-51
2023/08/25 10:51:18;;;;;;;4.40;3.10;;;27.40;99.90;;;;;;5049542;28;20509;-51
2023/08/25 10:53:46;;;;;;;5.60;2.90;;;27.40;99.90;;;;;;5051455;28;20469;-51
2023/08/25 10:56:14;;;;;;;5.03;3.27;;;27.40;99.90;;;;;;5045305;28;20493;-51
2023/08/25 10:58:40;;;;;;;21.27;2.57;;;27.50;99.90;;;;;;5048671;28;20491;-51
2023/08/25 11:01:07;;;;;;;3.20;2.20;;;27.80;99.90;;;;;;5050905;28;20493;-51
2023/08/25 11:03:48;;;;;;;7.70;2.40;;;28.30;99.90;;;;;;5051239;28;20838;-50
2023/08/25 11:06:39;;;;;;;13.17;2.63;;;28.60;99.90;;;;;;5044601;28;20872;-50
2023/08/25 11:09:06;;;;;;;6.53;1.97;;;28.50;99.90;;;;;;5042395;28;20455;-59
2023/08/25 11:11:36;;;;;;;4.53;2.27;;;28.50;99.90;;;;;;5049199;28;20473;-55
2023/08/25 11:14:03;;;;;;;4.70;2.60;;;28.60;99.90;;;;;;5052678;28;20484;-59
2023/08/25 11:16:29;;;;;;;2.03;1.93;;;28.80;99.90;;;;;;5045477;28;20469;-50
2023/08/25 11:18:57;;;;;;;3.57;2.20;;;29.10;99.90;;;;;;5049246;28;20529;-59
2023/08/25 11:21:24;;;;;;;2.53;1.90;;;29.40;99.90;;;;;;5047725;28;20627;-59
2023/08/25 11:23:51;;;;;;;7.60;2.20;;;29.80;99.90;;;;;;5046501;28;20963;-55
2023/08/25 11:26:19;;;;;;;2.63;2.30;;;30.00;99.90;;;;;;5046443;28;20497;-54
2023/08/25 11:28:47;;;;;;;7.00;3.07;;;30.20;99.90;;;;;;5051794;28;20461;-52
2023/08/25 11:31:14;;;;;;;2.93;2.40;;;30.10;99.90;;;;;;5048636;28;20478;-54
2023/08/25 11:33:41;;;;;;;7.87;2.40;;;29.80;99.90;;;;;;5041975;28;21383;-50
2023/08/25 11:36:15;;;;;;;3.77;2.10;;;29.60;99.90;;;;;;5047254;28;20544;-51
2023/08/25 11:38:42;;;;;;;3.30;2.10;;;29.50;99.90;;;;;;5050648;28;21092;-55
2023/08/25 11:41:10;;;;;;;5.57;1.80;;;29.50;99.90;;;;;;5052647;28;20499;-51
2023/08/25 11:43:38;;;;;;;10.50;3.03;;;29.30;99.90;;;;;;5052210;28;20449;-51
2023/08/25 11:46:05;;;;;;;12.37;2.10;;;29.30;99.90;;;;;;5043212;28;20465;-52
2023/08/25 11:48:33;;;;;;;1.77;1.53;;;29.30;99.90;;;;;;5045225;28;20982;-59
2023/08/25 11:51:00;;;;;;;13.60;2.23;;;29.20;99.90;;;;;;5050834;28;20621;-59
2023/08/25 11:53:28;;;;;;;2.60;2.07;;;29.40;99.90;;;;;;5053755;28;20935;-52
2023/08/25 11:56:02;;;;;;;5.30;2.10;;;29.70;99.90;;;;;;5044679;28;20490;-55
2023/08/25 11:58:30;;;;;;;8.60;1.93;;;29.80;99.90;;;;;;5046821;28;20848;-61
2023/08/25 12:01:00;;;;;;;6.63;2.23;;;29.70;99.90;;;;;;5045562;28;20481;-60
2023/08/25 12:03:27;;;;;;;7.73;1.77;;;29.80;99.90;;;;;;5053309;28;20440;-55
2023/08/25 12:06:04;;;;;;;7.70;2.10;;;29.60;99.90;;;;;;5096673;27;20592;-52
2023/08/25 12:08:31;;;;;;;10.93;2.27;;;29.30;99.90;;;;;;5100987;28;20538;-60
2023/08/25 12:10:59;;;;;;;8.67;2.20;;;29.30;99.90;;;;;;5074596;28;20839;-51
2023/08/25 12:13:26;;;;;;;2.50;2.30;;;29.30;99.90;;;;;;5077152;28;20452;-54
2023/08/25 12:15:54;;;;;;;8.93;1.90;;;29.40;99.90;;;;;;5088792;28;20482;-54
2023/08/25 12:18:21;;;;;;;4.10;1.97;;;29.40;99.90;;;;;;5086993;28;20480;-52
2023/08/25 12:20:48;;;;;;;3.97;2.20;;;29.30;99.90;;;;;;5077497;28;21065;-54
2023/08/25 12:23:17;;;;;;;8.33;1.87;;;29.20;99.90;;;;;;5088036;28;20876;-58
2023/08/25 12:25:44;;;;;;;3.70;2.00;;;28.90;99.90;;;;;;5088177;28;20558;-56
2023/08/25 12:28:11;;;;;;;3.57;2.40;;;28.80;99.90;;;;;;5089013;28;20451;-59
2023/08/25 12:30:38;;;;;;;2.13;1.90;;;28.70;99.90;;;;;;5086378;28;20541;-49
2023/08/25 12:33:05;;;;;;;5.43;1.70;;;28.70;99.90;;;;;;5087728;28;20945;-52
2023/08/25 12:35:32;;;;;;;2.10;1.60;;;28.70;99.90;;;;;;5086268;28;20452;-51
2023/08/25 12:37:59;;;;;;;4.43;2.20;;;28.40;99.90;;;;;;5083132;28;20902;-50
2023/08/25 12:40:27;;;;;;;5.57;2.43;;;28.40;99.90;;;;;;5085290;28;20543;-51
2023/08/25 12:42:55;;;;;;;3.23;1.80;;;28.30;99.90;;;;;;5080981;28;20460;-55
2023/08/25 12:45:22;;;;;;;4.10;2.13;;;28.20;99.90;;;;;;5085623;28;20495;-59
2023/08/25 12:47:49;;;;;;;3.63;1.63;;;28.00;99.90;;;;;;5083157;28;20530;-58